sensor_id;sensor_type;location;lat;lon;timestamp;pressure;altitude;pressure_sealevel;temperature;humidity
50292;BME280;36190;54.980;73.388;2024-02-23T00:01:43;102435.53;;;-23.18;57.26
50292;BME280;36190;54.980;73.388;2024-02-23T00:04:11;102430.56;;;-23.32;57.23
50292;BME280;36190;54.980;73.388;2024-02-23T00:06:40;102438.59;;;-23.38;57.24
50292;BME280;36190;54.980;73.388;2024-02-23T00:09:08;102442.13;;;-23.35;57.38
50292;BME280;36190;54.980;73.388;2024-02-23T00:11:36;102435.59;;;-23.32;57.55
50292;BME280;36190;54.980;73.388;2024-02-23T00:14:10;102433.25;;;-23.29;57.67
50292;BME280;36190;54.980;73.388;2024-02-23T00:16:38;102432.38;;;-23.29;57.56
50292;BME280;36190;54.980;73.388;2024-02-23T00:19:08;102442.97;;;-23.35;57.37
50292;BME280;36190;54.980;73.388;2024-02-23T00:21:36;102444.25;;;-23.42;57.13
50292;BME280;36190;54.980;73.388;2024-02-23T00:24:05;102444.53;;;-23.50;57.20
50292;BME280;36190;54.980;73.388;2024-02-23T00:26:34;102453.28;;;-23.59;56.93
50292;BME280;36190;54.980;73.388;2024-02-23T00:29:02;102454.66;;;-23.64;56.92
50292;BME280;36190;54.980;73.388;2024-02-23T00:31:30;102447.25;;;-23.74;57.00
50292;BME280;36190;54.980;73.388;2024-02-23T00:33:58;102456.50;;;-23.75;56.92
50292;BME280;36190;54.980;73.388;2024-02-23T00:36:25;102456.75;;;-23.84;56.91
50292;BME280;36190;54.980;73.388;2024-02-23T00:38:53;102451.69;;;-23.97;56.80
50292;BME280;36190;54.980;73.388;2024-02-23T00:41:22;102455.47;;;-24.17;56.74
50292;BME280;36190;54.980;73.388;2024-02-23T00:43:50;102454.50;;;-24.45;56.75
50292;BME280;36190;54.980;73.388;2024-02-23T00:46:17;102458.09;;;-24.67;56.52
50292;BME280;36190;54.980;73.388;2024-02-23T00:48:45;102454.34;;;-24.85;56.71
50292;BME280;36190;54.980;73.388;2024-02-23T00:51:13;102450.31;;;-24.95;56.81
50292;BME280;36190;54.980;73.388;2024-02-23T00:53:41;102455.34;;;-24.95;56.82
50292;BME280;36190;54.980;73.388;2024-02-23T00:56:08;102455.03;;;-25.00;56.83
50292;BME280;36190;54.980;73.388;2024-02-23T00:58:38;102464.81;;;-25.05;56.94
50292;BME280;36190;54.980;73.388;2024-02-23T01:01:06;102458.88;;;-25.05;57.01
50292;BME280;36190;54.980;73.388;2024-02-23T01:03:34;102456.78;;;-24.99;57.04
50292;BME280;36190;54.980;73.388;2024-02-23T01:06:01;102454.69;;;-24.93;57.00
50292;BME280;36190;54.980;73.388;2024-02-23T01:08:29;102457.72;;;-24.85;56.93
50292;BME280;36190;54.980;73.388;2024-02-23T01:10:57;102453.13;;;-24.79;57.07
50292;BME280;36190;54.980;73.388;2024-02-23T01:13:25;102455.72;;;-24.77;56.97
50292;BME280;36190;54.980;73.388;2024-02-23T01:15:54;102455.56;;;-24.80;56.89
50292;BME280;36190;54.980;73.388;2024-02-23T01:18:22;102459.41;;;-24.85;56.82
50292;BME280;36190;54.980;73.388;2024-02-23T01:20:49;102453.25;;;-24.89;56.80
50292;BME280;36190;54.980;73.388;2024-02-23T01:23:17;102440.53;;;-24.91;56.70
50292;BME280;36190;54.980;73.388;2024-02-23T01:25:45;102437.56;;;-24.85;56.80
50292;BME280;36190;54.980;73.388;2024-02-23T01:28:12;102452.91;;;-24.82;56.62
50292;BME280;36190;54.980;73.388;2024-02-23T01:30:40;102446.13;;;-24.83;56.60
50292;BME280;36190;54.980;73.388;2024-02-23T01:33:09;102450.50;;;-24.80;56.70
50292;BME280;36190;54.980;73.388;2024-02-23T01:35:37;102446.50;;;-24.77;56.64
50292;BME280;36190;54.980;73.388;2024-02-23T01:38:04;102451.09;;;-24.71;56.62
50292;BME280;36190;54.980;73.388;2024-02-23T01:40:32;102444.72;;;-24.66;56.44
50292;BME280;36190;54.980;73.388;2024-02-23T01:43:04;102451.72;;;-24.61;56.66
50292;BME280;36190;54.980;73.388;2024-02-23T01:45:32;102429.63;;;-24.78;56.52
50292;BME280;36190;54.980;73.388;2024-02-23T01:48:01;102446.84;;;-24.72;56.32
50292;BME280;36190;54.980;73.388;2024-02-23T01:50:31;102453.69;;;-24.83;56.32
50292;BME280;36190;54.980;73.388;2024-02-23T01:53:01;102455.81;;;-25.01;56.21
50292;BME280;36190;54.980;73.388;2024-02-23T01:55:30;102457.84;;;-25.21;56.08
50292;BME280;36190;54.980;73.388;2024-02-23T01:57:58;102452.91;;;-25.43;56.16
50292;BME280;36190;54.980;73.388;2024-02-23T02:00:27;102459.06;;;-25.63;56.22
50292;BME280;36190;54.980;73.388;2024-02-23T02:02:54;102460.94;;;-25.72;56.24
50292;BME280;36190;54.980;73.388;2024-02-23T02:05:22;102456.44;;;-25.77;56.38
50292;BME280;36190;54.980;73.388;2024-02-23T02:07:53;102456.44;;;-25.77;56.45
50292;BME280;36190;54.980;73.388;2024-02-23T02:10:25;102458.06;;;-25.77;56.59
50292;BME280;36190;54.980;73.388;2024-02-23T02:12:53;102468.78;;;-25.80;56.45
50292;BME280;36190;54.980;73.388;2024-02-23T02:15:20;102460.56;;;-25.89;56.44
50292;BME280;36190;54.980;73.388;2024-02-23T02:17:48;102463.34;;;-25.86;56.55
50292;BME280;36190;54.980;73.388;2024-02-23T02:20:18;102462.56;;;-25.85;56.50
50292;BME280;36190;54.980;73.388;2024-02-23T02:22:52;102474.38;;;-25.84;56.39
50292;BME280;36190;54.980;73.388;2024-02-23T02:25:20;102476.13;;;-25.83;56.63
50292;BME280;36190;54.980;73.388;2024-02-23T02:27:47;102470.44;;;-25.80;56.51
50292;BME280;36190;54.980;73.388;2024-02-23T02:30:15;102468.72;;;-25.69;56.48
50292;BME280;36190;54.980;73.388;2024-02-23T02:32:43;102477.13;;;-25.57;56.63
50292;BME280;36190;54.980;73.388;2024-02-23T02:35:11;102476.13;;;-25.47;56.60
50292;BME280;36190;54.980;73.388;2024-02-23T02:37:39;102478.72;;;-25.34;56.48
50292;BME280;36190;54.980;73.388;2024-02-23T02:40:09;102480.72;;;-25.17;56.40
50292;BME280;36190;54.980;73.388;2024-02-23T02:42:36;102486.50;;;-25.07;56.48
50292;BME280;36190;54.980;73.388;2024-02-23T02:45:04;102496.34;;;-24.98;56.26
50292;BME280;36190;54.980;73.388;2024-02-23T02:47:32;102492.31;;;-24.96;56.26
50292;BME280;36190;54.980;73.388;2024-02-23T02:50:02;102484.94;;;-24.93;56.24
50292;BME280;36190;54.980;73.388;2024-02-23T02:52:32;102485.38;;;-24.86;56.28
50292;BME280;36190;54.980;73.388;2024-02-23T02:55:00;102486.19;;;-24.74;56.15
50292;BME280;36190;54.980;73.388;2024-02-23T02:57:29;102499.50;;;-24.51;56.14
50292;BME280;36190;54.980;73.388;2024-02-23T02:59:57;102495.91;;;-24.29;56.22
50292;BME280;36190;54.980;73.388;2024-02-23T03:02:24;102492.28;;;-24.08;56.21
50292;BME280;36190;54.980;73.388;2024-02-23T03:04:52;102488.44;;;-23.89;56.26
50292;BME280;36190;54.980;73.388;2024-02-23T03:07:21;102493.13;;;-23.68;56.10
50292;BME280;36190;54.980;73.388;2024-02-23T03:09:49;102490.41;;;-23.44;56.10
50292;BME280;36190;54.980;73.388;2024-02-23T03:12:17;102490.78;;;-23.25;55.96
50292;BME280;36190;54.980;73.388;2024-02-23T03:14:46;102494.25;;;-23.09;55.92
50292;BME280;36190;54.980;73.388;2024-02-23T03:17:14;102500.09;;;-22.97;55.90
50292;BME280;36190;54.980;73.388;2024-02-23T03:19:41;102496.47;;;-22.87;55.61
50292;BME280;36190;54.980;73.388;2024-02-23T03:22:09;102495.19;;;-22.80;55.44
50292;BME280;36190;54.980;73.388;2024-02-23T03:24:37;102482.72;;;-22.77;55.41
50292;BME280;36190;54.980;73.388;2024-02-23T03:27:05;102493.78;;;-22.61;55.27
50292;BME280;36190;54.980;73.388;2024-02-23T03:29:32;102490.41;;;-22.47;55.33
50292;BME280;36190;54.980;73.388;2024-02-23T03:32:02;102498.13;;;-22.30;55.30
50292;BME280;36190;54.980;73.388;2024-02-23T03:34:30;102492.06;;;-22.19;55.22
50292;BME280;36190;54.980;73.388;2024-02-23T03:36:57;102493.13;;;-22.00;55.13
50292;BME280;36190;54.980;73.388;2024-02-23T03:39:28;102490.50;;;-21.87;55.22
50292;BME280;36190;54.980;73.388;2024-02-23T03:41:55;102485.28;;;-21.75;55.01
50292;BME280;36190;54.980;73.388;2024-02-23T03:44:23;102483.50;;;-21.61;54.97
50292;BME280;36190;54.980;73.388;2024-02-23T03:46:51;102494.31;;;-21.48;54.90
50292;BME280;36190;54.980;73.388;2024-02-23T03:49:20;102496.78;;;-21.35;54.77
50292;BME280;36190;54.980;73.388;2024-02-23T03:51:48;102486.88;;;-21.30;54.64
50292;BME280;36190;54.980;73.388;2024-02-23T03:54:15;102498.22;;;-21.23;54.45
50292;BME280;36190;54.980;73.388;2024-02-23T03:58:55;102490.97;;;-21.17;54.30
50292;BME280;36190;54.980;73.388;2024-02-23T04:01:23;102495.50;;;-21.11;54.26
50292;BME280;36190;54.980;73.388;2024-02-23T04:03:50;102483.31;;;-21.02;54.30
50292;BME280;36190;54.980;73.388;2024-02-23T04:06:18;102477.22;;;-20.89;54.33
50292;BME280;36190;54.980;73.388;2024-02-23T04:08:46;102486.28;;;-20.78;54.20
50292;BME280;36190;54.980;73.388;2024-02-23T04:11:13;102489.44;;;-20.65;54.00
50292;BME280;36190;54.980;73.388;2024-02-23T04:13:41;102484.09;;;-20.55;54.03
50292;BME280;36190;54.980;73.388;2024-02-23T04:16:10;102485.50;;;-20.43;54.12
50292;BME280;36190;54.980;73.388;2024-02-23T04:18:38;102492.19;;;-20.29;54.02
50292;BME280;36190;54.980;73.388;2024-02-23T04:21:05;102478.22;;;-20.21;53.95
50292;BME280;36190;54.980;73.388;2024-02-23T04:23:33;102468.41;;;-20.13;53.88
50292;BME280;36190;54.980;73.388;2024-02-23T04:26:01;102472.41;;;-20.01;53.74
50292;BME280;36190;54.980;73.388;2024-02-23T04:28:28;102473.84;;;-19.88;53.91
50292;BME280;36190;54.980;73.388;2024-02-23T04:30:59;102476.91;;;-19.78;53.79
50292;BME280;36190;54.980;73.388;2024-02-23T04:33:28;102476.44;;;-19.87;53.57
50292;BME280;36190;54.980;73.388;2024-02-23T04:35:56;102472.44;;;-20.00;53.37
50292;BME280;36190;54.980;73.388;2024-02-23T04:38:24;102467.13;;;-20.05;53.39
50292;BME280;36190;54.980;73.388;2024-02-23T04:40:52;102483.59;;;-19.98;53.47
50292;BME280;36190;54.980;73.388;2024-02-23T04:43:20;102479.78;;;-19.88;53.63
50292;BME280;36190;54.980;73.388;2024-02-23T04:45:48;102479.38;;;-19.79;53.62
50292;BME280;36190;54.980;73.388;2024-02-23T04:48:15;102480.75;;;-19.68;53.55
50292;BME280;36190;54.980;73.388;2024-02-23T04:50:45;102481.16;;;-19.60;53.48
50292;BME280;36190;54.980;73.388;2024-02-23T04:53:13;102473.88;;;-19.52;53.33
50292;BME280;36190;54.980;73.388;2024-02-23T04:55:41;102475.78;;;-19.48;53.08
50292;BME280;36190;54.980;73.388;2024-02-23T04:58:09;102477.03;;;-19.40;53.20
50292;BME280;36190;54.980;73.388;2024-02-23T05:00:37;102474.91;;;-19.30;53.27
50292;BME280;36190;54.980;73.388;2024-02-23T05:03:06;102471.72;;;-19.26;53.30
50292;BME280;36190;54.980;73.388;2024-02-23T05:05:35;102468.28;;;-19.09;53.37
50292;BME280;36190;54.980;73.388;2024-02-23T05:08:04;102466.28;;;-18.96;53.31
50292;BME280;36190;54.980;73.388;2024-02-23T05:10:32;102471.94;;;-18.84;53.25
50292;BME280;36190;54.980;73.388;2024-02-23T05:12:59;102474.22;;;-18.70;53.00
50292;BME280;36190;54.980;73.388;2024-02-23T05:15:27;102480.81;;;-18.56;53.03
50292;BME280;36190;54.980;73.388;2024-02-23T05:17:55;102474.47;;;-18.46;52.96
50292;BME280;36190;54.980;73.388;2024-02-23T05:20:22;102480.41;;;-18.45;52.81
50292;BME280;36190;54.980;73.388;2024-02-23T05:22:50;102481.63;;;-18.57;52.68
50292;BME280;36190;54.980;73.388;2024-02-23T05:25:19;102477.91;;;-18.63;52.59
50292;BME280;36190;54.980;73.388;2024-02-23T05:27:47;102473.69;;;-18.63;52.52
50292;BME280;36190;54.980;73.388;2024-02-23T05:30:15;102466.34;;;-18.57;52.71
50292;BME280;36190;54.980;73.388;2024-02-23T05:32:42;102477.47;;;-18.55;52.55
50292;BME280;36190;54.980;73.388;2024-02-23T05:35:10;102470.09;;;-18.48;52.62
50292;BME280;36190;54.980;73.388;2024-02-23T05:37:38;102467.94;;;-18.39;52.48
50292;BME280;36190;54.980;73.388;2024-02-23T05:40:06;102441.78;;;-18.35;52.57
50292;BME280;36190;54.980;73.388;2024-02-23T05:42:37;102474.72;;;-17.99;52.45
50292;BME280;36190;54.980;73.388;2024-02-23T05:45:07;102473.06;;;-17.77;52.46
50292;BME280;36190;54.980;73.388;2024-02-23T05:47:36;102475.00;;;-17.50;52.51
50292;BME280;36190;54.980;73.388;2024-02-23T05:50:04;102472.31;;;-17.32;52.55
50292;BME280;36190;54.980;73.388;2024-02-23T05:52:32;102458.09;;;-17.25;52.14
50292;BME280;36190;54.980;73.388;2024-02-23T05:55:00;102446.16;;;-17.26;52.08
50292;BME280;36190;54.980;73.388;2024-02-23T05:57:28;102472.72;;;-16.98;52.08
50292;BME280;36190;54.980;73.388;2024-02-23T05:59:57;102471.44;;;-16.87;52.04
50292;BME280;36190;54.980;73.388;2024-02-23T06:02:25;102465.03;;;-16.75;52.07
50292;BME280;36190;54.980;73.388;2024-02-23T06:04:53;102462.13;;;-16.62;52.17
50292;BME280;36190;54.980;73.388;2024-02-23T06:07:20;102460.09;;;-16.48;52.19
50292;BME280;36190;54.980;73.388;2024-02-23T06:09:55;102463.63;;;-16.44;52.02
50292;BME280;36190;54.980;73.388;2024-02-23T06:12:23;102467.91;;;-16.43;51.91
50292;BME280;36190;54.980;73.388;2024-02-23T06:14:52;102464.63;;;-16.39;52.06
50292;BME280;36190;54.980;73.388;2024-02-23T06:17:23;102457.84;;;-16.38;51.88
50292;BME280;36190;54.980;73.388;2024-02-23T06:19:50;102463.13;;;-16.34;51.93
50292;BME280;36190;54.980;73.388;2024-02-23T06:22:19;102471.19;;;-16.23;51.99
50292;BME280;36190;54.980;73.388;2024-02-23T06:24:48;102475.94;;;-16.08;52.00
50292;BME280;36190;54.980;73.388;2024-02-23T06:27:19;102479.00;;;-15.94;51.82
50292;BME280;36190;54.980;73.388;2024-02-23T06:29:48;102475.78;;;-15.86;51.74
50292;BME280;36190;54.980;73.388;2024-02-23T06:32:16;102473.38;;;-15.82;51.65
50292;BME280;36190;54.980;73.388;2024-02-23T06:34:45;102473.63;;;-15.74;51.66
50292;BME280;36190;54.980;73.388;2024-02-23T06:37:13;102474.00;;;-15.63;51.61
50292;BME280;36190;54.980;73.388;2024-02-23T06:39:41;102473.41;;;-15.54;51.59
50292;BME280;36190;54.980;73.388;2024-02-23T06:42:10;102470.38;;;-15.42;51.42
50292;BME280;36190;54.980;73.388;2024-02-23T06:44:37;102467.13;;;-15.37;51.52
50292;BME280;36190;54.980;73.388;2024-02-23T06:47:06;102468.06;;;-15.35;51.32
50292;BME280;36190;54.980;73.388;2024-02-23T06:49:33;102462.97;;;-15.33;51.20
50292;BME280;36190;54.980;73.388;2024-02-23T06:52:03;102456.13;;;-15.34;51.30
50292;BME280;36190;54.980;73.388;2024-02-23T06:54:31;102456.25;;;-15.31;51.26
50292;BME280;36190;54.980;73.388;2024-02-23T06:56:58;102457.16;;;-15.29;51.28
50292;BME280;36190;54.980;73.388;2024-02-23T06:59:26;102452.03;;;-15.29;51.26
50292;BME280;36190;54.980;73.388;2024-02-23T07:01:54;102455.78;;;-15.17;51.28
50292;BME280;36190;54.980;73.388;2024-02-23T07:04:22;102455.16;;;-15.10;51.23
50292;BME280;36190;54.980;73.388;2024-02-23T07:06:49;102460.53;;;-15.02;51.09
50292;BME280;36190;54.980;73.388;2024-02-23T07:09:18;102466.78;;;-14.93;51.12
50292;BME280;36190;54.980;73.388;2024-02-23T07:11:47;102461.13;;;-14.82;50.98
50292;BME280;36190;54.980;73.388;2024-02-23T07:14:14;102454.56;;;-14.71;50.92
50292;BME280;36190;54.980;73.388;2024-02-23T07:16:43;102454.69;;;-14.66;50.82
50292;BME280;36190;54.980;73.388;2024-02-23T07:19:10;102459.94;;;-14.61;50.83
50292;BME280;36190;54.980;73.388;2024-02-23T07:21:38;102452.50;;;-14.54;50.88
50292;BME280;36190;54.980;73.388;2024-02-23T07:24:07;102443.97;;;-14.53;50.75
50292;BME280;36190;54.980;73.388;2024-02-23T07:26:36;102451.16;;;-14.39;50.98
50292;BME280;36190;54.980;73.388;2024-02-23T07:29:04;102451.44;;;-14.28;50.75
50292;BME280;36190;54.980;73.388;2024-02-23T07:31:31;102450.97;;;-14.15;50.60
50292;BME280;36190;54.980;73.388;2024-02-23T07:33:59;102447.03;;;-14.02;50.46
50292;BME280;36190;54.980;73.388;2024-02-23T07:36:27;102447.31;;;-13.91;50.20
50292;BME280;36190;54.980;73.388;2024-02-23T07:38:55;102443.28;;;-13.79;50.30
50292;BME280;36190;54.980;73.388;2024-02-23T07:41:23;102445.50;;;-13.60;50.03
50292;BME280;36190;54.980;73.388;2024-02-23T07:43:52;102446.72;;;-13.42;49.88
50292;BME280;36190;54.980;73.388;2024-02-23T07:46:20;102440.91;;;-13.35;49.62
50292;BME280;36190;54.980;73.388;2024-02-23T07:48:48;102441.97;;;-13.27;49.59
50292;BME280;36190;54.980;73.388;2024-02-23T07:51:16;102437.84;;;-13.18;49.45
50292;BME280;36190;54.980;73.388;2024-02-23T07:53:45;102437.97;;;-13.12;49.29
50292;BME280;36190;54.980;73.388;2024-02-23T07:56:12;102439.94;;;-13.02;49.12
50292;BME280;36190;54.980;73.388;2024-02-23T07:58:40;102433.25;;;-12.93;48.95
50292;BME280;36190;54.980;73.388;2024-02-23T08:01:09;102437.69;;;-12.86;48.87
50292;BME280;36190;54.980;73.388;2024-02-23T08:03:37;102438.97;;;-12.65;48.73
50292;BME280;36190;54.980;73.388;2024-02-23T08:06:05;102437.66;;;-12.45;48.55
50292;BME280;36190;54.980;73.388;2024-02-23T08:08:32;102429.41;;;-12.28;48.51
50292;BME280;36190;54.980;73.388;2024-02-23T08:11:01;102436.47;;;-12.14;48.34
50292;BME280;36190;54.980;73.388;2024-02-23T08:13:29;102431.66;;;-11.96;48.35
50292;BME280;36190;54.980;73.388;2024-02-23T08:15:57;102424.13;;;-11.83;48.14
50292;BME280;36190;54.980;73.388;2024-02-23T08:18:27;102426.13;;;-11.65;47.93
50292;BME280;36190;54.980;73.388;2024-02-23T08:20:54;102427.16;;;-11.55;47.78
50292;BME280;36190;54.980;73.388;2024-02-23T08:23:22;102413.50;;;-11.50;47.54
50292;BME280;36190;54.980;73.388;2024-02-23T08:25:50;102410.19;;;-11.41;47.50
50292;BME280;36190;54.980;73.388;2024-02-23T08:28:19;102418.97;;;-11.26;47.33
50292;BME280;36190;54.980;73.388;2024-02-23T08:30:47;102407.06;;;-11.18;47.07
50292;BME280;36190;54.980;73.388;2024-02-23T08:33:14;102409.00;;;-11.01;47.10
50292;BME280;36190;54.980;73.388;2024-02-23T08:35:44;102414.41;;;-10.84;46.97
50292;BME280;36190;54.980;73.388;2024-02-23T08:40:57;102413.84;;;-10.55;46.80
50292;BME280;36190;54.980;73.388;2024-02-23T08:43:25;102413.09;;;-10.46;46.72
50292;BME280;36190;54.980;73.388;2024-02-23T08:45:52;102416.63;;;-10.35;46.62
50292;BME280;36190;54.980;73.388;2024-02-23T08:48:20;102418.47;;;-10.25;46.42
50292;BME280;36190;54.980;73.388;2024-02-23T08:50:49;102414.31;;;-10.09;46.18
50292;BME280;36190;54.980;73.388;2024-02-23T08:53:17;102415.34;;;-9.91;45.92
50292;BME280;36190;54.980;73.388;2024-02-23T08:55:45;102412.06;;;-9.71;46.03
50292;BME280;36190;54.980;73.388;2024-02-23T08:58:13;102410.41;;;-9.60;45.68
50292;BME280;36190;54.980;73.388;2024-02-23T09:00:57;102410.53;;;-9.44;45.46
50292;BME280;36190;54.980;73.388;2024-02-23T09:03:25;102417.47;;;-9.39;45.15
50292;BME280;36190;54.980;73.388;2024-02-23T09:05:54;102420.13;;;-9.31;45.21
50292;BME280;36190;54.980;73.388;2024-02-23T09:08:22;102410.66;;;-9.21;45.43
50292;BME280;36190;54.980;73.388;2024-02-23T09:10:50;102412.47;;;-9.07;44.79
50292;BME280;36190;54.980;73.388;2024-02-23T09:13:17;102407.34;;;-8.98;44.46
50292;BME280;36190;54.980;73.388;2024-02-23T09:15:45;102410.84;;;-8.93;44.23
50292;BME280;36190;54.980;73.388;2024-02-23T09:18:13;102410.84;;;-8.88;43.86
50292;BME280;36190;54.980;73.388;2024-02-23T09:20:40;102406.59;;;-8.75;43.81
50292;BME280;36190;54.980;73.388;2024-02-23T09:23:27;102407.50;;;-8.59;43.57
50292;BME280;36190;54.980;73.388;2024-02-23T09:25:54;102406.66;;;-8.49;43.69
50292;BME280;36190;54.980;73.388;2024-02-23T09:28:22;102414.44;;;-8.35;43.48
50292;BME280;36190;54.980;73.388;2024-02-23T09:30:50;102417.06;;;-8.29;43.54
50292;BME280;36190;54.980;73.388;2024-02-23T09:33:18;102417.94;;;-8.25;43.13
50292;BME280;36190;54.980;73.388;2024-02-23T09:35:46;102410.16;;;-8.26;43.01
50292;BME280;36190;54.980;73.388;2024-02-23T09:38:13;102420.53;;;-8.17;43.07
50292;BME280;36190;54.980;73.388;2024-02-23T09:40:42;102413.63;;;-8.04;42.74
50292;BME280;36190;54.980;73.388;2024-02-23T09:43:11;102417.97;;;-7.86;42.87
50292;BME280;36190;54.980;73.388;2024-02-23T09:45:39;102418.84;;;-7.78;42.61
50292;BME280;36190;54.980;73.388;2024-02-23T09:48:07;102407.59;;;-7.67;42.61
50292;BME280;36190;54.980;73.388;2024-02-23T09:50:37;102411.91;;;-7.49;42.57
50292;BME280;36190;54.980;73.388;2024-02-23T09:53:07;102404.97;;;-7.33;42.73
50292;BME280;36190;54.980;73.388;2024-02-23T09:55:37;102412.72;;;-7.16;42.81
50292;BME280;36190;54.980;73.388;2024-02-23T09:58:08;102378.16;;;-7.32;42.01
50292;BME280;36190;54.980;73.388;2024-02-23T10:00:37;102414.47;;;-7.32;41.98
50292;BME280;36190;54.980;73.388;2024-02-23T10:03:06;102411.91;;;-7.35;42.15
50292;BME280;36190;54.980;73.388;2024-02-23T10:05:33;102415.34;;;-7.38;42.30
50292;BME280;36190;54.980;73.388;2024-02-23T10:08:01;102419.69;;;-7.38;42.23
50292;BME280;36190;54.980;73.388;2024-02-23T10:10:30;102420.56;;;-7.35;42.30
50292;BME280;36190;54.980;73.388;2024-02-23T10:13:00;102427.44;;;-7.26;42.33
50292;BME280;36190;54.980;73.388;2024-02-23T10:15:31;102423.13;;;-7.27;42.58
50292;BME280;36190;54.980;73.388;2024-02-23T10:17:59;102419.66;;;-7.29;42.47
50292;BME280;36190;54.980;73.388;2024-02-23T10:20:27;102427.44;;;-7.29;42.03
50292;BME280;36190;54.980;73.388;2024-02-23T10:22:55;102428.31;;;-7.30;42.06
50292;BME280;36190;54.980;73.388;2024-02-23T10:25:23;102424.84;;;-7.23;42.09
50292;BME280;36190;54.980;73.388;2024-02-23T10:27:51;102420.50;;;-7.16;42.24
50292;BME280;36190;54.980;73.388;2024-02-23T10:30:19;102423.09;;;-7.16;42.07
50292;BME280;36190;54.980;73.388;2024-02-23T10:32:50;102422.22;;;-7.09;42.18
50292;BME280;36190;54.980;73.388;2024-02-23T10:35:22;102423.09;;;-7.10;42.17
50292;BME280;36190;54.980;73.388;2024-02-23T10:37:50;102426.56;;;-7.12;42.21
50292;BME280;36190;54.980;73.388;2024-02-23T10:40:20;102411.00;;;-7.17;42.15
50292;BME280;36190;54.980;73.388;2024-02-23T10:42:48;102424.78;;;-7.01;42.26
50292;BME280;36190;54.980;73.388;2024-02-23T10:45:18;102422.16;;;-6.96;42.52
50292;BME280;36190;54.980;73.388;2024-02-23T10:47:48;102432.53;;;-6.88;42.57
50292;BME280;36190;54.980;73.388;2024-02-23T10:50:18;102433.38;;;-6.83;42.64
50292;BME280;36190;54.980;73.388;2024-02-23T10:52:46;102441.16;;;-6.74;42.91
50292;BME280;36190;54.980;73.388;2024-02-23T10:55:14;102433.38;;;-6.83;42.76
50292;BME280;36190;54.980;73.388;2024-02-23T10:57:42;102429.94;;;-6.82;42.63
50292;BME280;36190;54.980;73.388;2024-02-23T11:00:11;102428.19;;;-6.86;42.31
50292;BME280;36190;54.980;73.388;2024-02-23T11:02:41;102430.03;;;-7.20;41.82
50292;BME280;36190;54.980;73.388;2024-02-23T11:05:13;102433.53;;;-7.58;41.80
50292;BME280;36190;54.980;73.388;2024-02-23T11:07:42;102433.50;;;-7.92;41.70
50292;BME280;36190;54.980;73.388;2024-02-23T11:10:13;102435.19;;;-8.22;41.61
50292;BME280;36190;54.980;73.388;2024-02-23T11:12:41;102428.25;;;-8.36;41.89
50292;BME280;36190;54.980;73.388;2024-02-23T11:15:09;102429.94;;;-8.47;41.85
50292;BME280;36190;54.980;73.388;2024-02-23T11:17:37;102425.63;;;-8.48;42.18
50292;BME280;36190;54.980;73.388;2024-02-23T11:20:06;102437.72;;;-8.57;42.18
50292;BME280;36190;54.980;73.388;2024-02-23T11:22:36;102435.03;;;-8.81;41.81
50292;BME280;36190;54.980;73.388;2024-02-23T11:25:04;102432.38;;;-8.92;42.01
50292;BME280;36190;54.980;73.388;2024-02-23T11:27:34;102435.84;;;-8.89;42.43
50292;BME280;36190;54.980;73.388;2024-02-23T11:30:04;102420.31;;;-8.92;42.35
50292;BME280;36190;54.980;73.388;2024-02-23T11:32:37;102436.78;;;-8.77;42.33
50292;BME280;36190;54.980;73.388;2024-02-23T11:35:08;102438.44;;;-8.92;42.20
50292;BME280;36190;54.980;73.388;2024-02-23T11:37:53;102441.81;;;-9.04;42.23
50292;BME280;36190;54.980;73.388;2024-02-23T11:40:25;102393.09;;;-9.72;42.50
50292;BME280;36190;54.980;73.388;2024-02-23T11:42:55;102432.59;;;-9.85;42.67
50292;BME280;36190;54.980;73.388;2024-02-23T11:45:24;102423.56;;;-10.31;43.01
50292;BME280;36190;54.980;73.388;2024-02-23T11:47:52;102437.91;;;-10.59;43.53
50292;BME280;36190;54.980;73.388;2024-02-23T11:50:20;102441.94;;;-10.82;43.78
50292;BME280;36190;54.980;73.388;2024-02-23T11:52:47;102433.06;;;-11.02;44.26
50292;BME280;36190;54.980;73.388;2024-02-23T11:55:20;102439.59;;;-11.28;44.34
50292;BME280;36190;54.980;73.388;2024-02-23T11:57:48;102446.06;;;-11.53;44.62
50292;BME280;36190;54.980;73.388;2024-02-23T12:00:17;102437.94;;;-11.78;44.61
50292;BME280;36190;54.980;73.388;2024-02-23T12:02:45;102448.81;;;-11.95;44.95
50292;BME280;36190;54.980;73.388;2024-02-23T12:05:16;102441.75;;;-12.08;45.10
50292;BME280;36190;54.980;73.388;2024-02-23T12:07:44;102439.84;;;-12.19;45.30
50292;BME280;36190;54.980;73.388;2024-02-23T12:10:12;102444.84;;;-12.28;45.97
50292;BME280;36190;54.980;73.388;2024-02-23T12:12:41;102436.03;;;-12.39;45.81
50292;BME280;36190;54.980;73.388;2024-02-23T12:15:09;102438.38;;;-12.52;45.94
50292;BME280;36190;54.980;73.388;2024-02-23T12:17:47;102444.19;;;-12.62;46.27
50292;BME280;36190;54.980;73.388;2024-02-23T12:20:15;102449.00;;;-12.76;46.46
50292;BME280;36190;54.980;73.388;2024-02-23T12:22:43;102447.06;;;-12.88;46.54
50292;BME280;36190;54.980;73.388;2024-02-23T12:25:12;102454.59;;;-12.96;46.79
50292;BME280;36190;54.980;73.388;2024-02-23T12:27:43;102445.72;;;-13.10;46.84
50292;BME280;36190;54.980;73.388;2024-02-23T12:30:13;102450.63;;;-13.21;46.83
50292;BME280;36190;54.980;73.388;2024-02-23T12:32:43;102447.78;;;-13.34;47.10
50292;BME280;36190;54.980;73.388;2024-02-23T12:35:11;102447.50;;;-13.46;47.21
50292;BME280;36190;54.980;73.388;2024-02-23T12:37:39;102448.19;;;-13.54;47.37
50292;BME280;36190;54.980;73.388;2024-02-23T12:40:08;102451.31;;;-13.65;47.34
50292;BME280;36190;54.980;73.388;2024-02-23T12:42:36;102448.41;;;-13.81;47.35
50292;BME280;36190;54.980;73.388;2024-02-23T12:45:08;102450.69;;;-13.92;47.44